Daily Weather Observations for Burdell (Townsville)
For Saturday 23rd February 2019

This table is designed for ease of comparison to Bureau of Meteorology recorded weather data.

Station Details Name: BURDELL Lat: -19.24 Lon: 146.69 Height: 8.5 m
Date/Time
EST
Temp
°C
App
Temp
°C
Dew
Point
°C
Rel
Hum
%
Delta-T
°C
Wind Press
QNH
hPa
Press
MSL
hPa
Rain since
9am
mm
Dir  Spd
km/h
Gust
km/h
Spd
kts
Gust
kts
23/11:30pm 27.7 32.4 24.7 84 2.2 ENE 10 16 6 9 1010.0 1010.0 0.0
23/11:00pm 27.7 32.4 24.9 85 2.1 ENE 11 16 6 9 1010.0 1010.0 0.0
23/10:30pm 28.0 32.7 25.0 84 2.2 ENE 11 16 6 9 1010.0 1010.0 0.0
23/10:00pm 27.9 32.5 24.9 84 2.2 ENE 13 21 7 11 1009.9 1009.9 0.0
23/09:30pm 28.1 33.0 25.1 84 2.2 ENE 11 16 6 9 1009.6 1009.6 0.0
23/09:00pm 28.1 32.7 24.7 82 2.5 ENE 10 16 5 9 1009.7 1009.7 0.0
23/08:30pm 28.0 32.6 24.8 83 2.4 ENE 11 16 6 9 1009.5 1009.5 0.0
23/08:00pm 28.0 32.2 24.5 82 2.6 ENE 13 21 7 11 1009.1 1009.1 0.0
23/07:30pm 28.1 32.7 24.7 82 2.5 ENE 12 18 6 10 1008.7 1008.7 0.0
23/07:00pm 28.3 32.7 24.3 79 2.9 ENE 13 21 7 11 1008.3 1008.3 0.0
23/06:30pm 28.6 33.7 24.8 80 2.8 ENE 12 18 6 10 1008.0 1008.0 0.0
23/06:00pm 29.1 34.8 25.1 79 3.0 ENE 16 23 9 13 1007.8 1007.8 0.0
23/05:30pm 29.6 36.0 25.5 79 3.0 ENE 19 26 10 14 1007.5 1007.5 0.0
23/05:00pm 30.9 38.3 25.8 75 3.8 ENE 13 18 7 10 1007.4 1007.4 0.0
23/04:30pm 29.9 36.5 25.4 77 3.3 ENE 14 23 8 13 1007.5 1007.5 0.0
23/04:00pm 30.5 37.1 25.2 74 3.9 ENE 16 21 9 11 1007.2 1007.2 0.0
23/03:30pm 31.2 38.8 25.7 74 4.1 NE 18 23 10 13 1007.0 1007.0 0.0
23/03:00pm 31.1 38.8 25.7 73 4.0 NE 17 32 9 17 1007.3 1007.3 0.0
23/02:30pm 31.2 39.8 26.4 76 3.6 ENE 18 26 10 14 1007.2 1007.2 0.0
23/02:00pm 30.8 39.2 26.5 79 3.2 NE 10 18 5 10 1007.5 1007.5 0.0
23/01:30pm 31.1 39.5 26.2 76 3.7 NE 9 16 5 9 1007.8 1007.8 0.0
23/01:00pm 31.8 41.3 26.6 75 3.9 NE 11 13 6 7 1008.1 1008.1 0.0
23/12:30pm 31.3 39.6 26.6 79 3.5 NE 12 21 6 11 1008.3 1008.3 0.0
23/12:00pm 30.3 37.1 25.4 77 3.6 N 14 18 8 10 1008.8 1008.8 0.0
23/11:30am 29.7 35.7 25.0 76 3.5 ESE 6 10 3 6 1009.3 1009.3 0.0
23/11:00am 28.9 34.2 25.0 80 2.9 E 13 18 7 10 1009.6 1009.6 0.0
23/10:30am 27.8 32.0 24.6 83 2.3 SE 20 32 11 17 1009.4 1009.4 0.0
23/10:00am 28.4 32.8 24.7 82 2.7 SE 17 26 9 14 1009.6 1009.6 0.0
23/09:30am 28.8 34.8 25.6 84 2.4 ENE 23 39 12 21 1009.0 1009.0 0.0
23/09:00am 30.0 37.1 26.0 80 3.0 SE 20 32 11 17 1008.7 1008.7 0.0
23/08:30am 29.6 37.0 26.2 83 2.6 ENE 10 16 5 9 1008.4 1008.4 0.0
23/08:00am 28.9 35.3 25.9 84 2.2 E 7 16 4 9 1008.1 1008.1 0.0
23/07:30am 28.6 35.1 25.9 86 2.0 ESE 6 10 3 6 1007.9 1007.9 0.0
23/07:00am 27.9 34.5 25.7 90 1.6 S 2 5 1 3 1007.6 1007.6 0.0
23/06:30am 26.2 32.6 25.1 94 0.8 SSE 0 1 0 1 1007.4 1007.4 0.0
23/06:00am 25.8 31.7 24.7 94 0.8 SSE 2 2 1 1 1007.1 1007.1 0.0
23/05:30am 25.9 32.1 24.7 93 0.9 CALM 0 0 0 0 1006.9 1006.9 0.0
23/05:00am 26.1 32.2 24.9 93 0.9 ESE 1 2 1 1 1006.5 1006.5 0.0
23/04:30am 26.2 32.2 24.8 92 1.0 SSE 2 2 1 1 1006.3 1006.3 0.0
23/04:00am 26.2 32.2 24.8 92 1.0 ENE 3 5 2 3 1006.2 1006.2 0.0
23/03:30am 26.2 32.4 24.8 92 1.0 E 1 5 1 3 1006.1 1006.1 0.0
23/03:00am 26.3 32.5 24.9 92 1.0 ESE 1 2 0 1 1006.0 1006.0 0.0
23/02:30am 26.1 32.3 24.7 92 1.0 CALM 0 0 0 0 1005.9 1005.9 0.0
23/02:00am 26.2 32.5 24.8 92 1.0 CALM 0 0 0 0 1006.2 1006.2 0.0
23/01:30am 26.5 32.8 24.7 90 1.3 CALM 0 0 0 0 1006.5 1006.5 0.0
23/01:00am 26.9 33.3 24.9 89 1.5 E 0 2 0 1 1006.8 1006.8 0.0
23/12:30am 27.1 33.4 25.1 89 1.5 ENE 3 5 1 3 1007.1 1007.1 0.0
23/12:00am 27.7 33.8 25.3 87 1.8 E 3 5 2 3 1007.5 1007.5 0.0
 


NOTE: The apparent temperature specified in the table above is calculated using both the Heat Index and Steadman method. This differs to the Bureau of Meteorology's calculation which uses the Steadman method alone.